createdAt,value
2019-05-06T00:00:14.437Z,1011.89
2019-05-06T00:00:58.981Z,1011.91
2019-05-06T00:01:35.376Z,1011.9
2019-05-06T00:02:15.783Z,1011.91
2019-05-06T00:02:56.133Z,1011.89
2019-05-06T00:03:36.631Z,1011.86
2019-05-06T00:04:17.043Z,1011.91
2019-05-06T00:04:57.417Z,1011.87
2019-05-06T00:05:37.787Z,1011.88
2019-05-06T00:11:15.518Z,1011.81
2019-05-06T00:11:55.833Z,1011.82
2019-05-06T00:12:36.245Z,1011.78
2019-05-06T00:13:16.652Z,1011.8
2019-05-06T00:13:57.031Z,1011.8
2019-05-06T00:14:37.474Z,1011.8
2019-05-06T00:15:17.861Z,1011.79
2019-05-06T00:15:58.277Z,1011.83
2019-05-06T00:16:38.662Z,1011.79
2019-05-06T00:17:19.105Z,1011.8
2019-05-06T00:17:59.488Z,1011.82
2019-05-06T00:18:39.897Z,1011.8
2019-05-06T00:19:20.258Z,1011.83
2019-05-06T00:20:00.735Z,1011.8
2019-05-06T00:20:41.033Z,1011.76
2019-05-06T00:21:21.442Z,1011.8
2019-05-06T00:22:01.826Z,1011.77
2019-05-06T00:22:43.573Z,1011.76
2019-05-06T00:23:24.814Z,1011.78
2019-05-06T00:24:03.895Z,1011.79
2019-05-06T00:24:43.993Z,1011.79
2019-05-06T00:25:24.293Z,1011.77
2019-05-06T00:26:04.219Z,1011.79
2019-05-06T00:26:44.925Z,1011.82
2019-05-06T00:27:25.261Z,1011.77
2019-05-06T00:28:06.130Z,1011.78
2019-05-06T00:28:46.059Z,1011.81
2019-05-06T00:29:26.485Z,1011.8
2019-05-06T00:30:47.266Z,1011.81
2019-05-06T00:31:27.669Z,1011.81
2019-05-06T00:32:08.048Z,1011.85
2019-05-06T00:32:48.471Z,1011.82
2019-05-06T00:33:28.850Z,1011.83
2019-05-06T00:34:09.244Z,1011.8
2019-05-06T00:34:49.605Z,1011.84
2019-05-06T00:35:30.886Z,1011.81
2019-05-06T00:36:11.249Z,1011.83
2019-05-06T00:36:54.317Z,1011.82
2019-05-06T00:37:34.747Z,1011.84
2019-05-06T00:38:13.843Z,1011.82
2019-05-06T00:38:53.894Z,1011.79
2019-05-06T00:39:33.781Z,1011.81
2019-05-06T00:40:14.165Z,1011.81
2019-05-06T00:41:36.220Z,1011.83
2019-05-06T00:42:15.398Z,1011.83
2019-05-06T00:42:55.817Z,1011.83
2019-05-06T00:43:36.399Z,1011.83
2019-05-06T00:44:16.760Z,1011.84
2019-05-06T00:44:57.152Z,1011.82
2019-05-06T00:45:37.532Z,1011.84
2019-05-06T00:46:58.327Z,1011.86
2019-05-06T00:47:38.723Z,1011.86
2019-05-06T00:48:19.127Z,1011.84
2019-05-06T00:48:59.585Z,1011.89
2019-05-06T00:49:39.978Z,1011.89
2019-05-06T00:50:20.367Z,1011.88
2019-05-06T00:51:00.776Z,1011.88
2019-05-06T00:51:41.205Z,1011.89
2019-05-06T00:52:23.231Z,1011.89
2019-05-06T00:53:02.003Z,1011.87
2019-05-06T00:53:43.673Z,1011.89
2019-05-06T00:54:24.693Z,1011.92
2019-05-06T00:55:04.550Z,1011.87
2019-05-06T00:55:44.984Z,1011.89
2019-05-06T00:56:25.385Z,1011.91
2019-05-06T00:57:05.805Z,1011.87
2019-05-06T00:57:46.233Z,1011.89
2019-05-06T00:58:26.676Z,1011.89
2019-05-06T00:59:07.091Z,1011.86
2019-05-06T00:59:47.506Z,1011.86
2019-05-06T01:00:27.904Z,1011.86
2019-05-06T01:01:08.338Z,1011.85
2019-05-06T01:01:48.748Z,1011.9
2019-05-06T01:02:29.169Z,1011.85
2019-05-06T01:03:09.598Z,1011.82
2019-05-06T01:03:50.037Z,1011.82
2019-05-06T01:04:30.420Z,1011.85
2019-05-06T01:06:28.332Z,1011.82
2019-05-06T01:07:08.559Z,1011.83
2019-05-06T01:07:48.958Z,1011.83
2019-05-06T01:08:29.426Z,1011.83
2019-05-06T01:09:09.938Z,1011.84
2019-05-06T01:09:50.311Z,1011.82
2019-05-06T01:10:30.736Z,1011.84
2019-05-06T01:11:11.177Z,1011.83
2019-05-06T01:11:51.551Z,1011.85
2019-05-06T01:12:31.971Z,1011.84
2019-05-06T01:13:14.452Z,1011.86
2019-05-06T01:13:54.482Z,1011.85
2019-05-06T01:14:35.068Z,1011.84
2019-05-06T01:15:14.238Z,1011.87
2019-05-06T01:15:54.745Z,1011.88
2019-05-06T01:16:34.660Z,1011.86
2019-05-06T01:17:15.358Z,1011.87
2019-05-06T01:17:55.732Z,1011.89
2019-05-06T01:18:36.132Z,1011.88
2019-05-06T01:19:16.506Z,1011.85
2019-05-06T01:19:56.916Z,1011.86
2019-05-06T01:20:37.343Z,1011.89
2019-05-06T01:21:17.748Z,1011.86
2019-05-06T01:21:58.166Z,1011.88
2019-05-06T01:22:38.593Z,1011.87
2019-05-06T01:23:19.076Z,1011.88
2019-05-06T01:23:59.495Z,1011.87
2019-05-06T01:24:39.926Z,1011.86
2019-05-06T01:25:20.342Z,1011.9
2019-05-06T01:26:00.800Z,1011.83
2019-05-06T01:26:41.173Z,1011.84
2019-05-06T01:27:21.592Z,1011.83
2019-05-06T01:28:04.122Z,1011.84
2019-05-06T01:28:43.529Z,1011.87
2019-05-06T01:29:24.015Z,1011.83
2019-05-06T01:30:04.363Z,1011.82
2019-05-06T01:31:24.852Z,1011.81
2019-05-06T01:32:04.517Z,1011.81
2019-05-06T01:32:44.920Z,1011.79
2019-05-06T01:33:25.347Z,1011.81
2019-05-06T01:34:05.693Z,1011.78
2019-05-06T01:34:46.098Z,1011.77
2019-05-06T01:35:26.524Z,1011.76
2019-05-06T01:36:06.990Z,1011.75
2019-05-06T01:36:47.466Z,1011.74
2019-05-06T01:37:27.896Z,1011.77
2019-05-06T01:38:08.303Z,1011.78
2019-05-06T01:38:48.750Z,1011.76
2019-05-06T01:39:29.129Z,1011.78
2019-05-06T01:40:09.556Z,1011.8
2019-05-06T01:40:49.953Z,1011.85
2019-05-06T01:41:30.369Z,1011.81
2019-05-06T01:42:10.787Z,1011.88
2019-05-06T01:42:51.222Z,1011.83
2019-05-06T01:43:31.607Z,1011.88
2019-05-06T01:44:13.641Z,1011.86
2019-05-06T01:44:53.818Z,1011.86
2019-05-06T01:45:34.647Z,1011.89
2019-05-06T01:46:13.976Z,1011.88
2019-05-06T01:46:54.141Z,1011.85
2019-05-06T01:47:34.596Z,1011.84
2019-05-06T01:48:14.630Z,1011.9
2019-05-06T01:48:54.979Z,1011.82
2019-05-06T01:49:35.406Z,1011.83
2019-05-06T01:50:15.817Z,1011.85
2019-05-06T01:50:56.240Z,1011.85
2019-05-06T01:51:36.643Z,1011.84
2019-05-06T01:52:17.058Z,1011.84
2019-05-06T01:52:57.645Z,1011.86
2019-05-06T01:53:38.066Z,1011.85
2019-05-06T01:54:18.456Z,1011.87
2019-05-06T01:54:58.882Z,1011.87
2019-05-06T01:55:39.252Z,1011.83
2019-05-06T01:56:19.612Z,1011.86
2019-05-06T01:57:00.031Z,1011.85
2019-05-06T01:57:40.499Z,1011.84
2019-05-06T01:58:20.846Z,1011.85
2019-05-06T01:59:01.263Z,1011.84
2019-05-06T01:59:41.687Z,1011.91
2019-05-06T02:00:23.646Z,1011.9
2019-05-06T02:01:04.016Z,1011.89
2019-05-06T02:01:54.536Z,1011.89
2019-05-06T02:02:23.845Z,1011.91
2019-05-06T02:03:04.136Z,1011.91
2019-05-06T02:03:44.415Z,1011.94
2019-05-06T02:04:24.611Z,1011.93
2019-05-06T02:05:05.023Z,1011.91
2019-05-06T02:05:45.470Z,1011.92
2019-05-06T02:06:25.857Z,1011.96
2019-05-06T02:07:06.234Z,1011.94
2019-05-06T02:07:46.651Z,1011.96
2019-05-06T02:08:27.071Z,1011.95
2019-05-06T02:09:07.502Z,1011.96
2019-05-06T02:09:47.903Z,1011.98
2019-05-06T02:10:28.311Z,1011.96
2019-05-06T02:11:08.716Z,1011.95
2019-05-06T02:11:49.280Z,1011.98
2019-05-06T02:12:29.710Z,1011.95
2019-05-06T02:13:10.133Z,1011.93
2019-05-06T02:13:50.552Z,1011.97
2019-05-06T02:14:30.969Z,1011.96
2019-05-06T02:15:11.387Z,1011.98
2019-05-06T02:15:51.808Z,1011.96
2019-05-06T02:16:34.023Z,1011.96
2019-05-06T02:17:14.361Z,1011.96
2019-05-06T02:17:55.050Z,1011.98
2019-05-06T02:18:33.921Z,1011.96
2019-05-06T02:19:14.782Z,1011.96
2019-05-06T02:19:54.716Z,1011.94
2019-05-06T02:20:34.760Z,1011.9
2019-05-06T02:21:15.219Z,1011.87
2019-05-06T02:21:55.570Z,1011.9
2019-05-06T02:22:35.984Z,1011.89
2019-05-06T02:23:16.358Z,1011.87
2019-05-06T02:23:56.743Z,1011.87
2019-05-06T02:24:37.210Z,1011.86
2019-05-06T02:25:17.561Z,1011.85
2019-05-06T02:25:57.933Z,1011.8
2019-05-06T02:26:38.347Z,1011.84
2019-05-06T02:27:18.769Z,1011.84
2019-05-06T02:27:59.203Z,1011.83
2019-05-06T02:28:39.598Z,1011.84
2019-05-06T02:29:19.957Z,1011.85
2019-05-06T02:30:00.381Z,1011.82
2019-05-06T02:30:40.796Z,1011.87
2019-05-06T02:31:21.192Z,1011.88
2019-05-06T02:32:16.968Z,1011.89
2019-05-06T02:32:41.931Z,1011.84
2019-05-06T02:33:24.539Z,1011.85
2019-05-06T02:34:05.053Z,1011.85
2019-05-06T02:34:45.762Z,1011.87
2019-05-06T02:35:26.239Z,1011.86
2019-05-06T02:36:06.532Z,1011.88
2019-05-06T02:36:45.503Z,1011.84
2019-05-06T02:37:25.441Z,1011.91
2019-05-06T02:38:05.445Z,1011.9
2019-05-06T02:38:50.629Z,1011.87
2019-05-06T02:39:26.216Z,1011.86
2019-05-06T02:40:06.613Z,1011.89
2019-05-06T02:40:47.017Z,1011.86
2019-05-06T02:41:27.415Z,1011.88
2019-05-06T02:42:07.821Z,1011.87
2019-05-06T02:42:48.229Z,1011.88
2019-05-06T02:43:28.634Z,1011.9
2019-05-06T02:44:10.839Z,1011.9
2019-05-06T02:44:49.511Z,1011.91
2019-05-06T02:45:33.185Z,1011.89
2019-05-06T02:46:12.859Z,1011.9
2019-05-06T02:46:53.114Z,1011.96
2019-05-06T02:47:34.032Z,1011.95
2019-05-06T02:49:44.355Z,1011.9
2019-05-06T02:50:24.114Z,1011.94
2019-05-06T02:51:04.507Z,1011.92
2019-05-06T02:51:44.941Z,1011.93
2019-05-06T02:52:25.329Z,1011.91
2019-05-06T02:53:05.744Z,1011.91
2019-05-06T02:54:26.567Z,1011.91
2019-05-06T02:55:06.990Z,1011.89
2019-05-06T02:55:47.455Z,1011.88
2019-05-06T02:57:08.234Z,1011.86
2019-05-06T02:57:48.639Z,1011.87
2019-05-06T02:58:29.060Z,1011.87
2019-05-06T02:59:09.457Z,1011.9
2019-05-06T02:59:49.872Z,1011.89
2019-05-06T03:00:32.478Z,1011.91
2019-05-06T03:01:13.367Z,1011.89
2019-05-06T03:01:53.525Z,1011.94
2019-05-06T03:02:39.661Z,1011.91
2019-05-06T03:03:13.903Z,1011.9
2019-05-06T03:03:53.504Z,1011.9
2019-05-06T03:04:33.301Z,1011.9
2019-05-06T03:05:13.235Z,1011.91
2019-05-06T03:05:53.573Z,1011.94
2019-05-06T03:06:34.079Z,1011.91
2019-05-06T03:07:14.754Z,1011.9
2019-05-06T03:07:57.506Z,1011.9
2019-05-06T03:08:35.111Z,1011.92
2019-05-06T03:09:15.521Z,1011.91
2019-05-06T03:09:55.948Z,1011.9
2019-05-06T03:10:36.333Z,1011.87
2019-05-06T03:11:16.748Z,1011.87
2019-05-06T03:11:57.145Z,1011.84
2019-05-06T03:12:37.528Z,1011.86
2019-05-06T03:13:17.933Z,1011.85
2019-05-06T03:13:58.321Z,1011.85
2019-05-06T03:14:38.708Z,1011.84
2019-05-06T03:15:19.179Z,1011.84
2019-05-06T03:15:59.531Z,1011.85
2019-05-06T03:16:39.972Z,1011.85
2019-05-06T03:17:23.000Z,1011.86
2019-05-06T03:18:02.983Z,1011.9
2019-05-06T03:18:43.304Z,1011.84
2019-05-06T03:19:23.955Z,1011.84
2019-05-06T03:20:04.179Z,1011.82
2019-05-06T03:20:43.871Z,1011.83
2019-05-06T03:21:24.635Z,1011.84
2019-05-06T03:22:03.686Z,1011.85
2019-05-06T03:22:44.110Z,1011.82
2019-05-06T03:23:24.527Z,1011.83
2019-05-06T03:24:07.300Z,1011.8
2019-05-06T03:24:45.263Z,1011.8
2019-05-06T03:25:25.723Z,1011.8
2019-05-06T03:26:06.928Z,1011.76
2019-05-06T03:26:46.411Z,1011.77
2019-05-06T03:27:28.608Z,1011.8
2019-05-06T03:28:08.936Z,1011.77
2019-05-06T03:28:49.310Z,1011.74
2019-05-06T03:29:29.722Z,1011.74
2019-05-06T03:30:10.144Z,1011.7
2019-05-06T03:30:55.799Z,1011.7
2019-05-06T03:31:36.319Z,1011.66
2019-05-06T03:32:16.315Z,1011.7
2019-05-06T03:33:23.106Z,1011.69
2019-05-06T03:33:49.494Z,1011.68
2019-05-06T03:34:30.464Z,1011.69
2019-05-06T03:35:14.599Z,1011.71
2019-05-06T03:35:49.751Z,1011.68
2019-05-06T03:36:24.898Z,1011.72
2019-05-06T03:36:57.176Z,1011.73
2019-05-06T03:37:36.876Z,1011.72
2019-05-06T03:38:17.280Z,1011.73
2019-05-06T03:38:57.682Z,1011.69
2019-05-06T03:39:38.075Z,1011.7
2019-05-06T03:40:18.513Z,1011.71
2019-05-06T03:40:58.887Z,1011.71
2019-05-06T03:41:39.319Z,1011.67
2019-05-06T03:42:22.772Z,1011.66
2019-05-06T03:43:02.514Z,1011.69
2019-05-06T03:43:43.200Z,1011.67
2019-05-06T03:44:23.825Z,1011.69
2019-05-06T03:45:04.104Z,1011.65
2019-05-06T03:45:42.852Z,1011.66
2019-05-06T03:46:23.166Z,1011.67
2019-05-06T03:47:04.999Z,1011.67
2019-05-06T03:47:43.586Z,1011.65
2019-05-06T03:48:23.987Z,1011.69
2019-05-06T03:49:03.998Z,1011.67
2019-05-06T03:49:44.230Z,1011.7
2019-05-06T03:50:24.558Z,1011.67
2019-05-06T03:51:04.944Z,1011.69
2019-05-06T03:51:45.336Z,1011.71
2019-05-06T03:52:25.741Z,1011.73
2019-05-06T03:53:06.147Z,1011.76
2019-05-06T03:53:46.592Z,1011.77
2019-05-06T03:54:26.984Z,1011.76
2019-05-06T03:55:07.419Z,1011.81
2019-05-06T03:55:47.780Z,1011.8
2019-05-06T03:56:28.214Z,1011.81
2019-05-06T03:57:08.573Z,1011.83
2019-05-06T03:57:49.053Z,1011.81
2019-05-06T03:58:29.355Z,1011.78
2019-05-06T03:59:09.714Z,1011.83
2019-05-06T03:59:52.495Z,1011.8
2019-05-06T04:00:33.038Z,1011.79
2019-05-06T04:01:13.128Z,1011.83
2019-05-06T04:01:53.427Z,1011.81
2019-05-06T04:02:33.568Z,1011.78
2019-05-06T04:03:13.959Z,1011.77
2019-05-06T04:03:56.882Z,1011.8
2019-05-06T04:04:33.487Z,1011.77
2019-05-06T04:05:13.889Z,1011.79
2019-05-06T04:05:55.861Z,1011.77
2019-05-06T04:06:34.694Z,1011.82
2019-05-06T04:07:15.111Z,1011.8
2019-05-06T04:07:55.510Z,1011.81
2019-05-06T04:08:35.934Z,1011.82
2019-05-06T04:09:16.343Z,1011.83
2019-05-06T04:09:57.351Z,1011.79
2019-05-06T04:10:37.776Z,1011.85
2019-05-06T04:11:18.261Z,1011.8
2019-05-06T04:11:58.712Z,1011.82
2019-05-06T04:12:39.074Z,1011.79
2019-05-06T04:13:19.480Z,1011.79
2019-05-06T04:14:02.519Z,1011.79
2019-05-06T04:14:43.089Z,1011.75
2019-05-06T04:15:22.924Z,1011.76
2019-05-06T04:16:03.701Z,1011.74
2019-05-06T04:16:43.950Z,1011.77
2019-05-06T04:17:23.739Z,1011.76
2019-05-06T04:18:03.955Z,1011.79
2019-05-06T04:18:43.815Z,1011.75
2019-05-06T04:19:24.066Z,1011.78
2019-05-06T04:20:04.401Z,1011.78
2019-05-06T04:20:44.774Z,1011.76
2019-05-06T04:21:25.354Z,1011.76
2019-05-06T04:22:05.717Z,1011.71
2019-05-06T04:22:46.162Z,1011.71
2019-05-06T04:23:26.532Z,1011.72
2019-05-06T04:24:07.485Z,1011.73
2019-05-06T04:24:47.892Z,1011.75
2019-05-06T04:25:28.306Z,1011.73
2019-05-06T04:26:13.297Z,1011.73
2019-05-06T04:26:53.329Z,1011.74
2019-05-06T05:06:49.517Z,1011.96
2019-05-06T05:07:33.359Z,1012.01
2019-05-06T05:08:13.284Z,1012.02
2019-05-06T05:08:53.633Z,1012.01
2019-05-06T05:09:34.549Z,1011.98
2019-05-06T05:10:16.015Z,1011.95
2019-05-06T05:10:56.500Z,1011.95
2019-05-06T05:11:37.314Z,1012.01
2019-05-06T05:13:35.657Z,1011.97
2019-05-06T05:14:16.071Z,1012.01
2019-05-06T05:14:56.443Z,1011.97
2019-05-06T05:15:36.841Z,1012.02
2019-05-06T05:16:17.237Z,1011.97
2019-05-06T05:16:57.620Z,1012.04
2019-05-06T05:17:38.077Z,1012.06
2019-05-06T05:18:25.525Z,1012.04
2019-05-06T05:19:05.876Z,1012.01
2019-05-06T05:19:46.301Z,1012.04
2019-05-06T05:20:36.742Z,1012.03
2019-05-06T05:21:07.319Z,1012.02
2019-05-06T05:21:47.840Z,1012.04
2019-05-06T05:22:28.212Z,1012.04
2019-05-06T05:23:08.884Z,1012.06
2019-05-06T05:23:49.260Z,1012.05
2019-05-06T05:24:31.681Z,1012.07
2019-05-06T05:25:12.179Z,1012.05
2019-05-06T05:25:56.070Z,1012.07
2019-05-06T05:26:36.502Z,1012.03
2019-05-06T05:27:18.664Z,1012
2019-05-06T05:27:59.086Z,1011.99
2019-05-06T05:28:42.783Z,1011.99
2019-05-06T05:29:22.764Z,1012.01
2019-05-06T05:30:01.906Z,1011.99
2019-05-06T05:30:42.990Z,1012.04
2019-05-06T05:31:23.153Z,1012.03
2019-05-06T05:32:03.531Z,1012.05
2019-05-06T05:32:43.852Z,1012.06
2019-05-06T05:35:32.321Z,1012.04
2019-05-06T05:39:08.256Z,1012.08
2019-05-06T05:39:51.970Z,1012.11
2019-05-06T05:40:32.170Z,1012.11
2019-05-06T05:41:12.136Z,1012.12
2019-05-06T05:41:52.645Z,1012.12
2019-05-06T05:42:33.037Z,1012.11
2019-05-06T05:43:13.381Z,1012.14
2019-05-06T05:43:53.815Z,1012.15
2019-05-06T05:44:34.313Z,1012.22
2019-05-06T05:45:16.293Z,1012.11
2019-05-06T05:45:58.091Z,1012.15
2019-05-06T05:46:38.427Z,1012.15
2019-05-06T05:47:18.942Z,1012.14
2019-05-06T05:47:59.384Z,1012.14
2019-05-06T05:48:42.203Z,1012.09
2019-05-06T05:49:22.459Z,1012.15
2019-05-06T05:50:02.942Z,1012.09
2019-05-06T05:50:42.030Z,1012.08
2019-05-06T05:51:22.222Z,1012.1
2019-05-06T05:52:03.776Z,1012.08
2019-05-06T05:52:44.216Z,1012.1
2019-05-06T05:57:03.070Z,1012.1
2019-05-06T05:57:43.318Z,1012.05
2019-05-06T05:58:24.781Z,1012.04
2019-05-06T05:59:04.047Z,1012.03
2019-05-06T05:59:46.324Z,1012.07
2019-05-06T06:00:28.653Z,1012.05
2019-05-06T06:01:12.365Z,1012.07
2019-05-06T06:01:52.867Z,1012.07
2019-05-06T06:02:33.210Z,1012.11
2019-05-06T06:03:17.443Z,1012.18
2019-05-06T06:03:58.395Z,1012.17
2019-05-06T06:04:51.896Z,1012.21
2019-05-06T06:06:03.020Z,1012.16
2019-05-06T06:06:43.430Z,1012.22
2019-05-06T06:07:24.834Z,1012.2
2019-05-06T06:08:06.110Z,1012.14
2019-05-06T06:08:49.251Z,1012.14
2019-05-06T06:09:32.742Z,1012.15
2019-05-06T06:10:12.782Z,1012.18
2019-05-06T06:10:53.946Z,1012.19
2019-05-06T06:11:35.552Z,1012.17
2019-05-06T06:12:16.065Z,1012.19
2019-05-06T06:12:58.114Z,1012.2
2019-05-06T06:13:39.012Z,1012.21
2019-05-06T06:14:21.902Z,1012.2
2019-05-06T06:15:42.442Z,1012.18
2019-05-06T06:16:23.219Z,1012.17
2019-05-06T06:17:03.722Z,1012.22
2019-05-06T06:17:44.835Z,1012.15
2019-05-06T06:27:26.897Z,1012.15
2019-05-06T06:28:06.623Z,1012.16
2019-05-06T06:28:48.233Z,1012.17
2019-05-06T06:29:28.330Z,1012.16
2019-05-06T06:30:09.270Z,1012.18
2019-05-06T06:30:51.990Z,1012.23
2019-05-06T06:31:33.356Z,1012.21
2019-05-06T06:32:13.884Z,1012.19
2019-05-06T06:32:54.652Z,1012.16
2019-05-06T06:35:19.166Z,1012.16
2019-05-06T06:36:02.828Z,1012.18
2019-05-06T06:36:44.476Z,1012.15
2019-05-06T06:37:25.009Z,1012.13
2019-05-06T06:38:05.808Z,1012.11
2019-05-06T06:38:47.861Z,1012.13
2019-05-06T06:39:29.523Z,1012.12
2019-05-06T06:40:09.599Z,1012.11
2019-05-06T06:40:53.413Z,1012.14
2019-05-06T06:41:42.336Z,1012.13
2019-05-06T06:42:22.619Z,1012.18
2019-05-06T06:43:02.983Z,1012.16
2019-05-06T06:43:43.595Z,1012.2
2019-05-06T06:44:24.762Z,1012.17
2019-05-06T06:45:04.798Z,1012.19
2019-05-06T06:45:45.185Z,1012.16
2019-05-06T06:46:27.338Z,1012.19
2019-05-06T06:47:07.994Z,1012.18
2019-05-06T06:47:48.445Z,1012.15
2019-05-06T06:48:28.858Z,1012.15
2019-05-06T06:49:09.380Z,1012.14
2019-05-06T06:49:49.791Z,1012.14
2019-05-06T06:50:30.179Z,1012.1
2019-05-06T06:51:12.352Z,1012.13
2019-05-06T06:51:53.132Z,1012.11
2019-05-06T06:52:33.369Z,1012.12
2019-05-06T08:52:02.369Z,1012.28
2019-05-06T08:52:42.482Z,1012.25
2019-05-06T08:53:24.158Z,1012.3
2019-05-06T08:54:03.227Z,1012.26
2019-05-06T08:54:43.455Z,1012.24
2019-05-06T08:55:38.604Z,1012.25
2019-05-06T08:56:19.326Z,1012.26
2019-05-06T08:56:59.670Z,1012.21
2019-05-06T08:57:42.031Z,1012.21
2019-05-06T08:58:22.110Z,1012.2
2019-05-06T08:59:03.134Z,1012.22
2019-05-06T08:59:42.450Z,1012.2
2019-05-06T09:00:22.846Z,1012.2
2019-05-06T09:01:03.957Z,1012.17
2019-05-06T09:01:46.292Z,1012.16
2019-05-06T09:02:27.267Z,1012.17
2019-05-06T09:03:08.586Z,1012.11
2019-05-06T09:04:06.256Z,1012.13
2019-05-06T09:04:32.054Z,1012.13
2019-05-06T09:05:12.288Z,1012.15
2019-05-06T09:05:53.039Z,1012.13
2019-05-06T09:10:27.694Z,1012.12
2019-05-06T09:12:57.261Z,1012.11
2019-05-06T09:13:43.287Z,1012.12
2019-05-06T09:14:23.340Z,1012.12
2019-05-06T09:15:44.882Z,1012.14
2019-05-06T09:16:25.395Z,1012.12
2019-05-06T09:17:05.943Z,1012.11
2019-05-06T09:17:46.318Z,1012.16
2019-05-06T09:18:34.208Z,1012.15
2019-05-06T09:19:15.011Z,1012.06
2019-05-06T09:19:55.537Z,1012.07
2019-05-06T09:20:36.293Z,1012.06
2019-05-06T09:21:19.453Z,1012.04
2019-05-06T09:21:59.662Z,1012.07
2019-05-06T09:22:40.073Z,1012.1
2019-05-06T09:23:22.608Z,1012.06
2019-05-06T09:24:02.220Z,1012.1
2019-05-06T09:24:42.720Z,1012.06
2019-05-06T09:25:23.181Z,1012.1
2019-05-06T09:26:03.346Z,1012.1
2019-05-06T09:28:23.223Z,1012.09
2019-05-06T09:29:02.224Z,1012.05
2019-05-06T09:29:43.068Z,1012.08
2019-05-06T09:30:25.981Z,1012.08
2019-05-06T09:31:09.619Z,1012.07
2019-05-06T09:31:48.589Z,1012.05
2019-05-06T09:33:49.289Z,1012.06
2019-05-06T09:34:32.468Z,1012.07
2019-05-06T09:35:13.045Z,1012.08
2019-05-06T09:35:52.839Z,1012.02
2019-05-06T09:38:20.205Z,1012.06
2019-05-06T09:39:02.583Z,1012.08
2019-05-06T09:39:44.601Z,1011.97
2019-05-06T09:42:12.997Z,1012
2019-05-06T09:42:54.903Z,1012.01
2019-05-06T09:43:36.755Z,1011.96
2019-05-06T09:44:18.315Z,1012
2019-05-06T09:44:59.231Z,1012.02
2019-05-06T09:45:42.289Z,1011.98
2019-05-06T09:46:23.044Z,1012
2019-05-06T09:47:03.549Z,1011.98
2019-05-06T09:53:04.886Z,1011.94
2019-05-06T09:55:33.234Z,1011.88
2019-05-06T09:56:19.665Z,1011.9
2019-05-06T09:57:06.883Z,1011.87
2019-05-06T09:57:49.372Z,1011.86
2019-05-06T09:58:33.029Z,1011.85
2019-05-06T09:59:17.695Z,1011.84
2019-05-06T09:59:58.499Z,1011.86
2019-05-06T10:00:39.928Z,1011.82
2019-05-06T10:01:22.362Z,1011.8
2019-05-06T10:02:01.614Z,1011.83
2019-05-06T10:04:03.466Z,1011.81
2019-05-06T10:04:43.580Z,1011.81
2019-05-06T10:05:24.091Z,1011.84
2019-05-06T10:08:12.357Z,1011.78
2019-05-06T10:08:54.211Z,1011.8
2019-05-06T10:09:37.423Z,1011.81
2019-05-06T10:10:17.941Z,1011.81
2019-05-06T10:10:59.806Z,1011.83
2019-05-06T10:11:43.278Z,1011.82
2019-05-06T10:12:24.481Z,1011.82
2019-05-06T10:13:07.783Z,1011.76
2019-05-06T10:13:48.104Z,1011.78
2019-05-06T10:14:37.682Z,1011.83
2019-05-06T10:15:18.311Z,1011.78
2019-05-06T10:16:02.912Z,1011.79
2019-05-06T10:16:44.530Z,1011.92
2019-05-06T10:17:25.140Z,1011.84
2019-05-06T10:18:16.956Z,1011.85
2019-05-06T10:18:58.845Z,1011.84
2019-05-06T10:20:57.443Z,1011.91
2019-05-06T10:21:37.946Z,1011.83
2019-05-06T10:22:18.362Z,1011.87
2019-05-06T10:22:59.599Z,1011.83
2019-05-06T10:23:42.366Z,1011.84
2019-05-06T10:24:22.875Z,1011.84
2019-05-06T10:25:03.792Z,1011.82
2019-05-06T10:25:44.007Z,1011.86
2019-05-06T10:26:24.088Z,1011.83
2019-05-06T10:27:04.451Z,1011.85
2019-05-06T10:28:29.547Z,1011.8
2019-05-06T11:07:35.280Z,1011.69
2019-05-06T11:08:15.858Z,1011.73
2019-05-06T11:08:56.178Z,1011.69
2019-05-06T11:09:37.523Z,1011.71
2019-05-06T11:10:27.856Z,1011.72
2019-05-06T11:11:15.108Z,1011.67
2019-05-06T11:11:52.914Z,1011.69
2019-05-06T11:12:33.664Z,1011.76
2019-05-06T11:15:14.346Z,1011.68
2019-05-06T11:15:59.742Z,1011.7
2019-05-06T11:16:46.728Z,1011.66
2019-05-06T11:17:32.607Z,1011.67
2019-05-06T11:18:13.460Z,1011.67
2019-05-06T11:18:53.569Z,1011.65
2019-05-06T11:19:35.381Z,1011.68
2019-05-06T11:20:15.928Z,1011.72
2019-05-06T11:20:56.634Z,1011.68
2019-05-06T11:21:37.155Z,1011.73
2019-05-06T11:23:02.054Z,1011.7
2019-05-06T11:25:24.538Z,1011.7
2019-05-06T11:26:12.985Z,1011.69
2019-05-06T11:26:53.431Z,1011.72
2019-05-06T11:27:38.371Z,1011.68
2019-05-06T11:28:19.359Z,1011.72
2019-05-06T11:29:04.987Z,1011.73
2019-05-06T11:29:43.492Z,1011.66
2019-05-06T11:30:24.777Z,1011.66
2019-05-06T11:31:09.166Z,1011.66
2019-05-06T11:31:48.583Z,1011.65
2019-05-06T11:32:32.563Z,1011.68
2019-05-06T11:33:15.781Z,1011.68
2019-05-06T11:34:18.425Z,1011.67
2019-05-06T11:37:25.243Z,1011.71
2019-05-06T11:38:05.811Z,1011.75
2019-05-06T11:38:52.234Z,1011.68
2019-05-06T11:40:42.059Z,1011.71
2019-05-06T11:42:31.197Z,1011.72
2019-05-06T11:42:58.985Z,1011.68
2019-05-06T11:43:42.693Z,1011.7
2019-05-06T11:44:20.135Z,1011.7
2019-05-06T11:45:09.173Z,1011.69
2019-05-06T11:46:33.001Z,1011.68
2019-05-06T11:47:13.596Z,1011.67
2019-05-06T11:47:56.165Z,1011.72
2019-05-06T11:48:38.105Z,1011.65
2019-05-06T11:50:02.022Z,1011.67
2019-05-06T11:50:46.632Z,1011.64
2019-05-06T11:51:32.881Z,1011.54
2019-05-06T11:52:13.112Z,1011.63
2019-05-06T11:52:58.766Z,1011.64
2019-05-06T11:53:39.385Z,1011.68
2019-05-06T11:54:24.317Z,1011.68
2019-05-06T11:55:02.450Z,1011.64
2019-05-06T11:55:49.432Z,1011.61
2019-05-06T11:56:46.957Z,1011.62
2019-05-06T11:57:16.309Z,1011.62
2019-05-06T11:57:56.948Z,1011.62
2019-05-06T11:58:38.491Z,1011.63
2019-05-06T11:59:22.576Z,1011.64
2019-05-06T12:00:03.214Z,1011.58
2019-05-06T12:00:44.567Z,1011.7
2019-05-06T12:01:24.871Z,1011.63
2019-05-06T12:02:12.886Z,1011.63
2019-05-06T12:03:04.794Z,1011.67
2019-05-06T12:03:44.955Z,1011.67
2019-05-06T12:04:25.488Z,1011.59
2019-05-06T12:05:08.074Z,1011.65
2019-05-06T12:05:48.902Z,1011.6
2019-05-06T12:06:35.675Z,1011.58
2019-05-06T12:07:24.428Z,1011.65
2019-05-06T12:08:07.925Z,1011.63
2019-05-06T12:08:44.014Z,1011.64
2019-05-06T12:09:24.776Z,1011.66
2019-05-06T12:10:06.197Z,1011.68
2019-05-06T12:10:51.979Z,1011.69
2019-05-06T12:11:35.830Z,1011.66
2019-05-06T12:12:16.480Z,1011.7
2019-05-06T12:12:59.155Z,1011.67
2019-05-06T12:13:42.487Z,1011.67
2019-05-06T12:14:24.378Z,1011.48
2019-05-06T12:15:07.142Z,1011.63
2019-05-06T12:15:46.734Z,1011.65
2019-05-06T12:16:28.795Z,1011.66
2019-05-06T12:17:55.671Z,1011.65
2019-05-06T12:18:36.923Z,1011.63
2019-05-06T12:19:19.087Z,1011.66
2019-05-06T12:20:02.651Z,1011.69
2019-05-06T12:20:43.027Z,1011.66
2019-05-06T12:21:25.383Z,1011.63
2019-05-06T12:22:06.254Z,1011.67
2019-05-06T12:22:52.827Z,1011.64
2019-05-06T12:23:35.741Z,1011.64
2019-05-06T12:24:17.032Z,1011.62
2019-05-06T12:25:04.322Z,1011.65
2019-05-06T12:25:45.584Z,1011.67
2019-05-06T12:26:26.548Z,1011.65
2019-05-06T12:27:09.591Z,1011.72
2019-05-06T12:27:52.465Z,1011.64
2019-05-06T12:28:33.184Z,1011.65
2019-05-06T12:29:15.437Z,1011.65
2019-05-06T12:29:59.796Z,1011.62
2019-05-06T12:30:42.694Z,1011.67
2019-05-06T12:31:23.512Z,1011.66
2019-05-06T12:32:04.072Z,1011.67
2019-05-06T12:32:45.317Z,1011.61
2019-05-06T12:33:26.233Z,1011.65
2019-05-06T12:34:07.083Z,1011.63
2019-05-06T12:34:52.434Z,1011.64
2019-05-06T12:35:32.186Z,1011.61
2019-05-06T12:36:15.168Z,1011.62
2019-05-06T12:36:56.167Z,1011.54
2019-05-06T12:37:38.226Z,1011.59
2019-05-06T12:38:27.303Z,1011.59
2019-05-06T12:39:06.287Z,1011.58
2019-05-06T12:39:43.146Z,1011.56
2019-05-06T12:40:25.481Z,1011.61
2019-05-06T12:41:05.973Z,1011.57
2019-05-06T12:41:46.388Z,1011.59
2019-05-06T12:42:26.936Z,1011.59
2019-05-06T12:43:09.240Z,1011.56
2019-05-06T12:43:49.936Z,1011.57
2019-05-06T12:44:32.233Z,1011.6
2019-05-06T12:45:13.028Z,1011.56
2019-05-06T12:45:54.923Z,1011.56